Flight Track Log - Related Links

Times and Time Zones

All times are in EDT time to prevent confusion due to time zone crossing. See the N377ES flight status page for this flight to view local times or setup timezone preferences in your user account.

Time Position Orientation Groundspeed Altitude Reporting Facility
EDT Latitude Longitude Course Direction KTS MPH feet Rate Location/Type
Fri 06:36:12 PM 38.2642 -84.0219 350° North 101 116 3,500  Level Indianapolis Center
Fri 06:37:14 PM 38.2919 -84.0317 345° North 103 119 3,500  Level Indianapolis Center
Fri 06:38:16 PM 38.3203 -84.0428 343° North 105 121 3,500 48 Level Indianapolis Center
Fri 06:39:18 PM 38.3481 -84.0494 349° North 103 119 3,600 48 Climbing Indianapolis Center
Fri 06:40:00 PM 38.2716 -84.0273 350° North  Level Estimated
Fri 06:40:20 PM 38.3836 -84.0533 355° North 105 121 3,600  Level Indianapolis Center
Fri 06:41:00 PM 38.3072 -84.0353 350° North  Level Estimated
Fri 06:41:22 PM 38.4125 -84.0592 351° North 105 121 3,600  Level Indianapolis Center
Fri 06:42:24 PM 38.4422 -84.0647 352° North 107 123 3,600 -48 Level Indianapolis Center
Fri 06:43:26 PM 38.4719 -84.0750 345° North 109 125 3,500  Descending Indianapolis Center
Fri 06:44:28 PM 38.5011 -84.0819 349° North 109 125 3,600 48 Climbing Indianapolis Center
Fri 06:45:30 PM 38.5350 -84.0892 351° North 105 121 3,600 -48 Level Indianapolis Center
Fri 06:46:32 PM 38.5647 -84.0961 350° North 107 123 3,500 -97 Descending Indianapolis Center
Fri 06:47:34 PM 38.5942 -84.1028 350° North 107 123 3,400 -97 Descending Indianapolis Center
Fri 06:48:36 PM 38.6228 -84.1083 351° North 105 121 3,300 48 Descending Indianapolis Center
Fri 06:49:38 PM 38.6522 -84.1147 350° North 106 122 3,500 97 Climbing Indianapolis Center
Fri 06:50:40 PM 38.6806 -84.1211 350° North 105 121 3,500  Level Indianapolis Center
Fri 06:51:42 PM 38.7147 -84.1297 349° North 106 122 3,500  Level Indianapolis Center
Fri 06:52:44 PM 38.7442 -84.1339 354° North 106 122 3,500  Level Indianapolis Center
Fri 06:53:46 PM 38.7714 -84.1408 349° North 107 123 3,500 -36 Level Indianapolis Center
Fri 06:55:29 PM 38.8333 -84.1500 353° North 113 130 3,400 -37 Descending Cincinnati TRACON
Fri 06:56:29 PM 38.8500 -84.1500 360° North 109 125 3,400 -100 Level Cincinnati TRACON
Fri 06:57:29 PM 38.8833 -84.1500 360° North 114 131 3,200 -200 Descending Cincinnati TRACON
Fri 06:58:29 PM 38.9167 -84.1667 339° North 119 137 3,000 -200 Descending Cincinnati TRACON

Login

Don't have an account? Register now (free) for customized features, flight alerts, and more!